createdAt,value
2022-08-03T00:01:30.800Z,46.50
2022-08-03T00:03:58.317Z,72.50
2022-08-03T00:06:27.141Z,76.25
2022-08-03T00:08:54.675Z,75.35
2022-08-03T00:11:22.198Z,76.70
2022-08-03T00:13:49.735Z,52.75
2022-08-03T00:16:18.882Z,42.13
2022-08-03T00:18:46.979Z,48.72
2022-08-03T00:21:14.475Z,52.33
2022-08-03T00:23:52.565Z,53.72
2022-08-03T00:26:20.397Z,46.17
2022-08-03T00:28:48.013Z,62.13
2022-08-03T00:31:15.852Z,59.90
2022-08-03T00:33:59.734Z,59.85
2022-08-03T00:36:30.845Z,54.45
2022-08-03T00:38:59.632Z,68.28
2022-08-03T00:41:27.156Z,55.05
2022-08-03T00:43:54.725Z,71.45
2022-08-03T00:46:22.424Z,60.42
2022-08-03T00:48:50.483Z,72.93
2022-08-03T00:51:18.927Z,64.55
2022-08-03T00:53:46.505Z,61.83
2022-08-03T00:56:16.203Z,53.05
2022-08-03T00:58:46.297Z,61.22
2022-08-03T01:01:14.649Z,62.95
2022-08-03T01:03:42.249Z,57.47
2022-08-03T01:06:17.829Z,48.10
2022-08-03T01:08:49.514Z,47.85
2022-08-03T01:11:27.568Z,50.92
2022-08-03T01:14:18.072Z,54.38
2022-08-03T01:16:55.516Z,53.88
2022-08-03T01:19:40.855Z,48.03
2022-08-03T01:22:24.193Z,53.95
2022-08-03T01:25:02.088Z,51.47
2022-08-03T01:27:44.253Z,62.95
2022-08-03T01:30:13.316Z,57.17
2022-08-03T01:32:59.364Z,56.25
2022-08-03T01:35:33.279Z,103.78
2022-08-03T01:38:10.891Z,110.82
2022-08-03T01:40:41.020Z,120.28
2022-08-03T01:43:12.506Z,109.78
2022-08-03T01:45:44.878Z,108.18
2022-08-03T01:48:16.708Z,103.20
2022-08-03T01:50:46.117Z,105.93
2022-08-03T01:53:15.379Z,113.10
2022-08-03T01:55:46.515Z,107.07
2022-08-03T01:58:16.009Z,113.55
2022-08-03T02:00:46.278Z,103.47
2022-08-03T02:03:16.334Z,113.35
2022-08-03T02:05:45.982Z,98.90
2022-08-03T02:08:14.928Z,88.82
2022-08-03T02:10:44.451Z,84.13
2022-08-03T02:13:13.601Z,84.00
2022-08-03T02:15:43.361Z,98.68
2022-08-03T02:18:13.012Z,98.78
2022-08-03T02:20:42.850Z,95.75
2022-08-03T02:23:10.786Z,95.63
2022-08-03T02:25:44.081Z,103.40
2022-08-03T02:28:17.271Z,97.40
2022-08-03T02:30:53.693Z,101.85
2022-08-03T02:33:28.403Z,65.10
2022-08-03T02:35:58.107Z,94.47
2022-08-03T02:38:34.259Z,89.70
2022-08-03T02:41:05.814Z,37.30
2022-08-03T02:43:40.270Z,90.22
2022-08-03T02:46:31.303Z,86.05
2022-08-03T02:49:50.821Z,80.47
2022-08-03T02:51:53.239Z,91.60
2022-08-03T02:54:22.648Z,67.10
2022-08-03T02:56:51.242Z,57.33
2022-08-03T02:59:20.629Z,47.88
2022-08-03T03:01:48.597Z,29.83
2022-08-03T03:04:18.108Z,28.98
2022-08-03T03:06:49.899Z,27.25
2022-08-03T03:09:18.411Z,23.45
2022-08-03T03:11:46.964Z,27.67
2022-08-03T03:14:16.366Z,34.28
2022-08-03T03:17:02.636Z,27.25
2022-08-03T03:19:33.427Z,25.80
2022-08-03T03:22:02.308Z,24.83
2022-08-03T03:24:30.987Z,25.13
2022-08-03T03:26:59.019Z,26.30
2022-08-03T03:29:27.017Z,25.90
2022-08-03T03:31:54.707Z,24.67
2022-08-03T03:34:22.395Z,24.85
2022-08-03T03:36:52.660Z,27.52
2022-08-03T03:39:20.171Z,23.02
2022-08-03T03:41:47.943Z,24.13
2022-08-03T03:44:15.764Z,15.38
2022-08-03T03:46:43.635Z,20.60
2022-08-03T03:49:12.496Z,27.00
2022-08-03T03:51:40.055Z,22.67
2022-08-03T03:54:08.932Z,29.10
2022-08-03T03:56:36.449Z,24.45
2022-08-03T03:59:04.000Z,32.25
2022-08-03T04:01:32.150Z,25.50
2022-08-03T04:04:19.838Z,26.65
2022-08-03T04:07:05.319Z,21.38
2022-08-03T04:09:55.104Z,22.60
2022-08-03T04:12:29.203Z,25.60
2022-08-03T04:14:58.604Z,23.75
2022-08-03T04:17:29.338Z,16.02
2022-08-03T04:19:58.575Z,23.40
2022-08-03T04:22:28.472Z,43.17
2022-08-03T04:25:05.779Z,39.75
2022-08-03T04:27:37.558Z,32.75
2022-08-03T04:30:07.759Z,23.20
2022-08-03T04:32:37.919Z,18.80
2022-08-03T04:35:07.132Z,25.25
2022-08-03T04:37:39.654Z,17.17
2022-08-03T04:40:14.332Z,17.73
2022-08-03T04:42:45.184Z,17.83
2022-08-03T04:45:14.246Z,17.02
2022-08-03T04:47:43.096Z,27.15
2022-08-03T04:50:13.521Z,35.35
2022-08-03T04:52:43.316Z,51.30
2022-08-03T04:55:12.335Z,15.02
2022-08-03T04:57:39.852Z,14.25
2022-08-03T05:00:08.881Z,16.95
2022-08-03T05:02:36.416Z,40.65
2022-08-03T05:05:04.019Z,64.97
2022-08-03T05:07:35.814Z,30.52
2022-08-03T05:10:05.357Z,55.10
2022-08-03T05:12:44.611Z,47.75
2022-08-03T05:15:12.937Z,62.55
2022-08-03T05:17:40.539Z,59.30
2022-08-03T05:20:09.198Z,53.42
2022-08-03T05:22:36.700Z,49.72
2022-08-03T05:25:05.371Z,69.03
2022-08-03T05:27:32.944Z,53.35
2022-08-03T05:30:26.275Z,56.83
2022-08-03T05:32:49.392Z,58.97
2022-08-03T05:36:00.434Z,64.03
2022-08-03T05:38:04.441Z,57.17
2022-08-03T05:40:33.404Z,42.55
2022-08-03T05:43:01.943Z,52.05
2022-08-03T05:45:30.777Z,58.08
2022-08-03T05:47:58.238Z,36.42
2022-08-03T05:50:25.708Z,40.90
2022-08-03T05:52:56.311Z,37.20
2022-08-03T05:55:23.807Z,63.72
2022-08-03T05:57:51.352Z,61.33
2022-08-03T06:00:22.771Z,61.00
2022-08-03T06:02:54.661Z,59.28
2022-08-03T06:05:22.277Z,11.98
2022-08-03T06:07:49.803Z,14.68
2022-08-03T06:10:36.427Z,27.05
2022-08-03T06:13:05.183Z,15.60
2022-08-03T06:15:35.304Z,18.42
2022-08-03T06:18:04.373Z,13.88
2022-08-03T06:20:31.893Z,19.23
2022-08-03T06:23:01.166Z,19.73
2022-08-03T06:25:29.281Z,18.33
2022-08-03T06:27:56.914Z,13.15
2022-08-03T06:30:24.651Z,17.73
2022-08-03T06:32:52.514Z,30.27
2022-08-03T06:35:21.546Z,30.20
2022-08-03T06:37:50.286Z,21.40
2022-08-03T06:40:21.648Z,29.50
2022-08-03T06:42:49.472Z,19.30
2022-08-03T06:45:17.879Z,9.45
2022-08-03T06:47:45.373Z,33.53
2022-08-03T06:50:17.185Z,42.47
2022-08-03T06:52:47.261Z,15.85
2022-08-03T06:55:14.728Z,27.40
2022-08-03T06:57:42.298Z,25.58
2022-08-03T07:00:12.698Z,37.22
2022-08-03T07:02:40.684Z,38.90
2022-08-03T07:05:09.603Z,42.63
2022-08-03T07:07:37.272Z,45.72
2022-08-03T07:10:07.814Z,40.03
2022-08-03T07:12:37.001Z,41.90
2022-08-03T07:15:55.328Z,39.38
2022-08-03T07:18:07.974Z,41.22
2022-08-03T07:20:35.438Z,33.17
2022-08-03T07:23:03.043Z,42.40
2022-08-03T07:25:31.868Z,19.13
2022-08-03T07:27:59.631Z,38.10
2022-08-03T07:30:27.108Z,39.88
2022-08-03T07:32:54.727Z,35.08
2022-08-03T07:35:24.674Z,29.02
2022-08-03T07:37:55.138Z,46.13
2022-08-03T07:40:23.412Z,40.72
2022-08-03T07:42:59.537Z,38.13
2022-08-03T07:45:27.355Z,37.00
2022-08-03T07:47:54.898Z,31.55
2022-08-03T07:50:22.924Z,40.15
2022-08-03T07:52:52.784Z,13.45
2022-08-03T07:55:22.285Z,19.85
2022-08-03T07:58:02.227Z,17.75
2022-08-03T08:00:29.859Z,11.50
2022-08-03T08:02:57.367Z,9.77
2022-08-03T08:05:25.042Z,15.05
2022-08-03T08:07:52.536Z,11.60
2022-08-03T08:10:20.222Z,10.02
2022-08-03T08:12:48.201Z,11.25
2022-08-03T08:15:17.114Z,8.45
2022-08-03T08:17:46.519Z,10.38
2022-08-03T08:20:23.771Z,11.00
2022-08-03T08:22:57.778Z,8.68
2022-08-03T08:25:25.956Z,12.32
2022-08-03T08:28:29.704Z,10.15
2022-08-03T08:30:43.004Z,11.25
2022-08-03T08:33:22.806Z,10.68
2022-08-03T08:35:51.378Z,19.75
2022-08-03T08:38:18.882Z,8.80
2022-08-03T08:40:47.026Z,7.55
2022-08-03T08:43:14.516Z,9.55
2022-08-03T08:45:43.607Z,7.40
2022-08-03T08:48:12.198Z,8.25
2022-08-03T08:50:40.136Z,10.45
2022-08-03T08:53:11.600Z,15.30
2022-08-03T08:55:59.571Z,10.32
2022-08-03T08:58:30.446Z,11.23
2022-08-03T09:00:59.653Z,9.35
2022-08-03T09:03:30.324Z,10.38
2022-08-03T09:06:00.335Z,12.55
2022-08-03T09:08:27.903Z,9.98
2022-08-03T09:10:55.520Z,11.15
2022-08-03T09:13:22.999Z,10.13
2022-08-03T09:16:09.526Z,9.68
2022-08-03T09:18:38.706Z,11.52
2022-08-03T09:21:34.174Z,9.20
2022-08-03T09:24:05.401Z,10.68
2022-08-03T09:26:35.489Z,11.05
2022-08-03T09:29:10.863Z,8.10
2022-08-03T09:31:44.039Z,13.15
2022-08-03T09:34:15.257Z,7.78
2022-08-03T09:36:44.641Z,7.55
2022-08-03T09:39:14.403Z,8.65
2022-08-03T09:41:44.342Z,8.18
2022-08-03T09:44:24.007Z,9.85
2022-08-03T09:46:54.766Z,10.02
2022-08-03T09:49:24.830Z,9.13
2022-08-03T09:52:33.647Z,9.27
2022-08-03T09:54:41.787Z,9.25
2022-08-03T09:57:09.747Z,9.95
2022-08-03T09:59:41.230Z,8.95
2022-08-03T10:02:22.555Z,9.00
2022-08-03T10:04:52.820Z,9.15
2022-08-03T10:07:21.730Z,10.23
2022-08-03T10:09:58.088Z,10.23
2022-08-03T10:12:48.060Z,12.82
2022-08-03T10:16:22.081Z,13.48
2022-08-03T10:18:03.704Z,11.00
2022-08-03T10:20:33.889Z,24.27
2022-08-03T10:23:01.694Z,16.15
2022-08-03T10:25:33.130Z,22.95
2022-08-03T10:28:04.288Z,28.80
2022-08-03T10:30:33.149Z,19.02
2022-08-03T10:33:06.032Z,20.17
2022-08-03T10:35:58.127Z,32.97
2022-08-03T10:38:31.982Z,30.33
2022-08-03T10:41:01.158Z,25.85
2022-08-03T10:43:33.239Z,25.20
2022-08-03T10:46:02.540Z,12.85
2022-08-03T10:48:32.172Z,12.20
2022-08-03T10:51:01.043Z,12.18
2022-08-03T10:53:40.249Z,12.25
2022-08-03T10:56:41.480Z,9.07
2022-08-03T10:59:12.952Z,14.27
2022-08-03T11:02:00.321Z,9.93
2022-08-03T11:04:29.761Z,20.60
2022-08-03T11:07:22.102Z,11.23
2022-08-03T11:09:51.588Z,23.90
2022-08-03T11:12:30.116Z,14.73
2022-08-03T11:15:01.908Z,19.52
2022-08-03T11:17:29.639Z,19.75
2022-08-03T11:19:58.503Z,26.55
2022-08-03T11:22:53.999Z,20.30
2022-08-03T11:25:52.971Z,21.92
2022-08-03T11:28:26.789Z,16.50
2022-08-03T11:30:54.474Z,18.38
2022-08-03T11:33:30.593Z,11.30
2022-08-03T11:36:03.008Z,9.32
2022-08-03T11:38:31.933Z,11.65
2022-08-03T11:41:02.564Z,6.80
2022-08-03T11:43:45.326Z,18.77
2022-08-03T11:46:28.737Z,14.50
2022-08-03T11:49:10.380Z,18.10
2022-08-03T11:51:39.884Z,18.45
2022-08-03T11:54:09.076Z,9.63
2022-08-03T11:56:47.772Z,11.38
2022-08-03T11:59:20.483Z,33.25
2022-08-03T12:01:49.075Z,12.38
2022-08-03T12:04:17.111Z,10.18
2022-08-03T12:06:59.350Z,9.20
2022-08-03T12:09:28.305Z,17.90
2022-08-03T12:11:59.485Z,14.40
2022-08-03T12:14:49.949Z,15.20
2022-08-03T12:17:16.198Z,31.70
2022-08-03T12:19:44.814Z,24.38
2022-08-03T12:22:13.483Z,13.82
2022-08-03T12:24:43.468Z,16.42
2022-08-03T12:27:11.087Z,11.45
2022-08-03T12:29:38.741Z,16.52
2022-08-03T12:32:06.511Z,12.70
2022-08-03T12:34:47.423Z,15.48
2022-08-03T12:37:19.022Z,17.17
2022-08-03T12:40:02.938Z,24.33
2022-08-03T12:42:35.058Z,19.13
2022-08-03T12:45:21.517Z,19.65
2022-08-03T12:47:54.400Z,22.23
2022-08-03T12:50:26.290Z,17.58
2022-08-03T12:52:53.821Z,28.50
2022-08-03T12:55:24.171Z,24.15
2022-08-03T12:57:51.915Z,11.52
2022-08-03T13:00:28.849Z,23.50
2022-08-03T13:03:38.292Z,12.15
2022-08-03T13:05:51.340Z,16.98
2022-08-03T13:08:20.741Z,14.63
2022-08-03T13:10:50.004Z,13.13
2022-08-03T13:13:18.023Z,20.27
2022-08-03T13:15:47.721Z,26.67
2022-08-03T13:18:17.377Z,20.08
2022-08-03T13:20:45.568Z,18.88
2022-08-03T13:23:22.312Z,24.35
2022-08-03T13:25:55.793Z,13.68
2022-08-03T13:28:23.851Z,17.13
2022-08-03T13:30:51.432Z,14.68
2022-08-03T13:33:19.052Z,14.85
2022-08-03T13:35:46.577Z,15.40
2022-08-03T13:38:15.417Z,22.35
2022-08-03T13:40:46.130Z,12.80
2022-08-03T13:43:18.341Z,19.27
2022-08-03T13:45:51.201Z,10.48
2022-08-03T13:48:37.375Z,11.82
2022-08-03T13:51:11.525Z,22.45
2022-08-03T13:53:49.838Z,12.38
2022-08-03T13:56:17.338Z,14.30
2022-08-03T13:58:46.210Z,21.13
2022-08-03T14:01:13.836Z,17.90
2022-08-03T14:03:41.385Z,11.05
2022-08-03T14:06:08.891Z,24.25
2022-08-03T14:08:36.406Z,20.17
2022-08-03T14:11:04.674Z,15.30
2022-08-03T14:13:32.725Z,24.70
2022-08-03T14:16:01.550Z,20.42
2022-08-03T14:18:33.944Z,18.42
2022-08-03T14:21:05.924Z,15.95
2022-08-03T14:23:34.499Z,9.40
2022-08-03T14:26:02.147Z,12.32
2022-08-03T14:28:29.644Z,12.68
2022-08-03T14:30:57.368Z,14.68
2022-08-03T14:33:28.287Z,13.85
2022-08-03T14:35:56.000Z,27.75
2022-08-03T14:38:23.775Z,13.05
2022-08-03T14:40:52.977Z,25.88
2022-08-03T14:43:21.206Z,33.20
2022-08-03T14:45:52.038Z,22.70
2022-08-03T14:50:34.886Z,18.70
2022-08-03T14:51:08.637Z,17.48
2022-08-03T14:53:36.252Z,18.02
2022-08-03T14:56:07.933Z,14.82
2022-08-03T14:58:37.811Z,23.80
2022-08-03T15:02:02.603Z,20.77
2022-08-03T15:03:52.964Z,14.65
2022-08-03T15:06:22.031Z,18.88
2022-08-03T15:09:06.300Z,31.27
2022-08-03T15:11:37.560Z,32.17
2022-08-03T15:14:09.186Z,27.85
2022-08-03T15:16:37.217Z,27.83
2022-08-03T15:19:05.009Z,22.67
2022-08-03T15:21:53.601Z,19.65
2022-08-03T15:24:21.283Z,29.02
2022-08-03T15:26:48.804Z,28.25
2022-08-03T15:30:07.193Z,25.67
2022-08-03T15:32:08.739Z,22.88
2022-08-03T15:34:36.869Z,27.13
2022-08-03T15:37:15.185Z,22.67
2022-08-03T15:39:58.461Z,22.52
2022-08-03T15:42:28.453Z,13.82
2022-08-03T15:44:55.970Z,23.00
2022-08-03T15:47:23.588Z,24.63
2022-08-03T15:49:51.172Z,21.75
2022-08-03T15:52:20.042Z,20.85
2022-08-03T15:54:47.576Z,20.45
2022-08-03T15:57:15.070Z,20.60
2022-08-03T15:59:42.559Z,23.25
2022-08-03T16:02:10.156Z,22.42
2022-08-03T16:04:37.654Z,27.73
2022-08-03T16:07:05.233Z,18.20
2022-08-03T16:09:42.404Z,24.63
2022-08-03T16:12:16.693Z,26.20
2022-08-03T16:14:52.439Z,20.50
2022-08-03T16:17:21.352Z,17.77
2022-08-03T16:19:49.158Z,16.45
2022-08-03T16:22:17.346Z,15.32
2022-08-03T16:24:48.515Z,14.18
2022-08-03T16:27:26.361Z,12.68
2022-08-03T16:30:03.967Z,24.75
2022-08-03T16:32:31.531Z,20.90
2022-08-03T16:34:59.148Z,25.98
2022-08-03T16:37:56.269Z,25.92
2022-08-03T16:40:19.182Z,26.02
2022-08-03T16:42:47.336Z,27.55
2022-08-03T16:45:15.142Z,25.33
2022-08-03T16:47:42.638Z,28.23
2022-08-03T16:50:17.260Z,28.05
2022-08-03T16:52:48.291Z,27.30
2022-08-03T16:55:42.787Z,27.88
2022-08-03T16:58:05.985Z,28.85
2022-08-03T17:00:41.581Z,28.10
2022-08-03T17:03:18.742Z,28.17
2022-08-03T17:05:49.546Z,26.77
2022-08-03T17:08:19.017Z,27.48
2022-08-03T17:10:57.001Z,25.85
2022-08-03T17:13:39.402Z,28.10
2022-08-03T17:16:09.602Z,27.63
2022-08-03T17:18:42.257Z,25.80
2022-08-03T17:21:16.938Z,23.02
2022-08-03T17:23:50.673Z,29.05
2022-08-03T17:26:22.175Z,25.95
2022-08-03T17:28:57.981Z,29.23
2022-08-03T17:31:31.813Z,24.80
2022-08-03T17:34:01.590Z,23.10
2022-08-03T17:36:53.915Z,23.20
2022-08-03T17:39:30.821Z,27.35
2022-08-03T17:42:29.080Z,25.23
2022-08-03T17:44:57.437Z,21.02
2022-08-03T17:47:42.948Z,23.88
2022-08-03T17:50:25.203Z,25.52
2022-08-03T17:53:07.390Z,28.38
2022-08-03T17:55:57.138Z,28.20
2022-08-03T17:58:52.755Z,29.17
2022-08-03T18:01:59.613Z,26.83
2022-08-03T18:04:41.518Z,28.83
2022-08-03T18:07:12.547Z,27.88
2022-08-03T18:10:04.899Z,29.25
2022-08-03T18:12:41.474Z,30.42
2022-08-03T18:15:21.396Z,30.55
2022-08-03T18:17:55.820Z,31.95
2022-08-03T18:20:34.418Z,33.55
2022-08-03T18:23:04.976Z,36.00
2022-08-03T18:25:45.326Z,37.20
2022-08-03T18:28:18.840Z,42.22
2022-08-03T18:30:53.924Z,47.67
2022-08-03T18:34:18.251Z,45.20
2022-08-03T18:36:17.964Z,41.05
2022-08-03T18:38:47.398Z,49.33
2022-08-03T18:41:20.531Z,49.95
2022-08-03T18:44:08.612Z,46.92
2022-08-03T18:46:48.921Z,46.22
2022-08-03T18:49:29.536Z,34.72
2022-08-03T18:52:04.059Z,32.25
2022-08-03T18:54:51.019Z,36.58
2022-08-03T18:57:35.088Z,40.03
2022-08-03T19:00:14.010Z,35.53
2022-08-03T19:02:49.307Z,35.28
2022-08-03T19:05:20.306Z,37.47
2022-08-03T19:07:58.195Z,36.00
2022-08-03T19:10:32.250Z,34.60
2022-08-03T19:13:05.195Z,37.35
2022-08-03T19:15:51.442Z,33.90
2022-08-03T19:18:22.362Z,36.05
2022-08-03T19:20:54.670Z,38.65
2022-08-03T19:23:25.427Z,40.92
2022-08-03T19:25:53.880Z,39.13
2022-08-03T19:28:29.721Z,37.65
2022-08-03T19:30:58.032Z,44.15
2022-08-03T19:33:29.945Z,46.70
2022-08-03T19:35:58.171Z,40.42
2022-08-03T19:41:19.852Z,41.53
2022-08-03T19:43:57.495Z,39.28
2022-08-03T19:46:27.722Z,35.72
2022-08-03T19:49:03.924Z,42.60
2022-08-03T19:52:01.563Z,35.63
2022-08-03T19:54:29.759Z,39.17
2022-08-03T19:57:01.738Z,37.53
2022-08-03T19:59:32.140Z,36.88
2022-08-03T20:01:59.663Z,37.33
2022-08-03T20:04:28.632Z,28.20
2022-08-03T20:06:58.488Z,39.22
2022-08-03T20:09:30.566Z,39.97
2022-08-03T20:11:58.870Z,28.08
2022-08-03T20:14:26.859Z,24.92
2022-08-03T20:16:54.804Z,31.35
2022-08-03T20:19:23.882Z,32.20
2022-08-03T20:22:02.184Z,32.40
2022-08-03T20:24:35.778Z,36.20
2022-08-03T20:27:07.773Z,32.10
2022-08-03T20:30:06.131Z,20.30
2022-08-03T20:32:25.571Z,19.17
2022-08-03T20:34:53.430Z,20.80
2022-08-03T20:37:22.397Z,16.45
2022-08-03T20:39:50.056Z,20.67
2022-08-03T20:42:21.255Z,15.40
2022-08-03T20:45:05.178Z,11.52
2022-08-03T20:47:36.260Z,12.40
2022-08-03T20:50:07.709Z,11.65
2022-08-03T20:52:43.992Z,12.25
2022-08-03T20:55:17.767Z,12.52
2022-08-03T20:57:49.030Z,14.13
2022-08-03T21:00:19.512Z,18.65
2022-08-03T21:02:50.151Z,22.55
2022-08-03T21:05:17.832Z,15.70
2022-08-03T21:08:06.930Z,19.33
2022-08-03T21:10:38.108Z,25.73
2022-08-03T21:13:09.823Z,34.95
2022-08-03T21:13:16.825Z,25.48
2022-08-03T21:16:06.649Z,25.10
2022-08-03T21:18:42.939Z,27.13
2022-08-03T21:21:14.790Z,21.08
2022-08-03T21:23:48.742Z,20.00
2022-08-03T21:26:18.402Z,22.80
2022-08-03T21:28:46.851Z,20.92
2022-08-03T21:31:19.834Z,17.50
2022-08-03T21:33:54.976Z,20.67
2022-08-03T21:36:22.550Z,21.30
2022-08-03T21:38:56.333Z,22.10
2022-08-03T21:41:25.961Z,25.95
2022-08-03T21:43:53.562Z,20.50
2022-08-03T21:46:22.654Z,21.35
2022-08-03T21:48:55.534Z,24.98
2022-08-03T21:51:25.564Z,34.60
2022-08-03T21:54:03.231Z,41.78
2022-08-03T21:56:37.061Z,59.83
2022-08-03T21:59:07.720Z,39.45
2022-08-03T22:01:37.068Z,27.63
2022-08-03T22:04:07.180Z,29.88
2022-08-03T22:06:37.140Z,28.63
2022-08-03T22:09:08.476Z,19.77
2022-08-03T22:11:38.687Z,17.45
2022-08-03T22:14:06.749Z,24.13
2022-08-03T22:16:34.356Z,17.35
2022-08-03T22:19:01.972Z,19.60
2022-08-03T22:21:36.326Z,16.95
2022-08-03T22:24:07.327Z,16.98
2022-08-03T22:26:36.810Z,22.83
2022-08-03T22:29:08.325Z,15.07
2022-08-03T22:31:57.372Z,15.57
2022-08-03T22:34:27.388Z,19.92
2022-08-03T22:37:00.147Z,15.52
2022-08-03T22:39:30.317Z,14.57
2022-08-03T22:41:58.681Z,15.18
2022-08-03T22:44:27.255Z,18.48
2022-08-03T22:46:55.252Z,14.27
2022-08-03T22:49:23.287Z,17.92
2022-08-03T22:51:52.536Z,17.08
2022-08-03T22:54:20.548Z,23.25
2022-08-03T22:56:50.593Z,18.90
2022-08-03T22:59:41.075Z,19.98
2022-08-03T23:02:20.021Z,20.77
2022-08-03T23:04:52.136Z,19.85
2022-08-03T23:07:28.256Z,16.58
2022-08-03T23:09:57.260Z,18.48
2022-08-03T23:12:27.392Z,16.02
2022-08-03T23:14:56.621Z,15.88
2022-08-03T23:17:24.822Z,14.52
2022-08-03T23:19:53.799Z,14.32
2022-08-03T23:22:30.083Z,15.55
2022-08-03T23:24:59.545Z,16.50
2022-08-03T23:27:29.488Z,16.38
2022-08-03T23:29:59.226Z,19.42
2022-08-03T23:32:28.018Z,15.93
2022-08-03T23:35:15.486Z,15.25
2022-08-03T23:38:04.812Z,15.63
2022-08-03T23:40:31.104Z,13.95
2022-08-03T23:43:02.075Z,22.10
2022-08-03T23:45:32.168Z,12.48
2022-08-03T23:47:59.628Z,11.23
2022-08-03T23:50:28.942Z,9.52
2022-08-03T23:53:05.924Z,10.07
2022-08-03T23:55:48.127Z,14.85
2022-08-03T23:58:35.506Z,12.85
